sensor_id;sensor_type;location;lat;lon;timestamp;P1;durP1;ratioP1;P2;durP2;ratioP2
20739;SDS011;10530;49.968;19.844;2023-04-06T00:02:54;8.68;;;3.20;;
20739;SDS011;10530;49.968;19.844;2023-04-06T00:07:58;10.10;;;3.92;;
20739;SDS011;10530;49.968;19.844;2023-04-06T00:13:01;9.80;;;3.45;;
20739;SDS011;10530;49.968;19.844;2023-04-06T00:18:04;8.38;;;3.90;;
20739;SDS011;10530;49.968;19.844;2023-04-06T00:23:06;12.13;;;3.07;;
20739;SDS011;10530;49.968;19.844;2023-04-06T00:28:28;7.75;;;3.38;;
20739;SDS011;10530;49.968;19.844;2023-04-06T00:33:32;9.55;;;3.22;;
20739;SDS011;10530;49.968;19.844;2023-04-06T00:38:53;9.23;;;3.45;;
20739;SDS011;10530;49.968;19.844;2023-04-06T00:43:56;7.45;;;3.10;;
20739;SDS011;10530;49.968;19.844;2023-04-06T00:48:59;8.63;;;3.37;;
20739;SDS011;10530;49.968;19.844;2023-04-06T00:54:02;8.10;;;3.47;;
20739;SDS011;10530;49.968;19.844;2023-04-06T00:59:26;7.05;;;3.30;;
20739;SDS011;10530;49.968;19.844;2023-04-06T01:04:32;9.68;;;4.20;;
20739;SDS011;10530;49.968;19.844;2023-04-06T01:09:36;9.20;;;4.50;;
20739;SDS011;10530;49.968;19.844;2023-04-06T01:14:47;10.70;;;3.17;;
20739;SDS011;10530;49.968;19.844;2023-04-06T01:20:09;10.15;;;4.18;;
20739;SDS011;10530;49.968;19.844;2023-04-06T01:25:30;9.40;;;3.95;;
20739;SDS011;10530;49.968;19.844;2023-04-06T01:30:39;9.07;;;3.15;;
20739;SDS011;10530;49.968;19.844;2023-04-06T01:35:59;9.95;;;3.53;;
20739;SDS011;10530;49.968;19.844;2023-04-06T01:41:21;5.90;;;3.50;;
20739;SDS011;10530;49.968;19.844;2023-04-06T01:46:45;9.05;;;3.67;;
20739;SDS011;10530;49.968;19.844;2023-04-06T01:52:11;9.27;;;4.55;;
20739;SDS011;10530;49.968;19.844;2023-04-06T01:57:36;8.52;;;3.97;;
20739;SDS011;10530;49.968;19.844;2023-04-06T02:03:05;9.05;;;3.97;;
20739;SDS011;10530;49.968;19.844;2023-04-06T02:08:08;11.17;;;3.73;;
20739;SDS011;10530;49.968;19.844;2023-04-06T02:13:12;9.80;;;3.92;;
20739;SDS011;10530;49.968;19.844;2023-04-06T02:18:20;10.18;;;4.07;;
20739;SDS011;10530;49.968;19.844;2023-04-06T02:23:24;10.95;;;3.60;;
20739;SDS011;10530;49.968;19.844;2023-04-06T02:28:27;6.82;;;3.20;;
20739;SDS011;10530;49.968;19.844;2023-04-06T02:33:29;10.03;;;3.70;;
20739;SDS011;10530;49.968;19.844;2023-04-06T02:38:50;12.50;;;3.95;;
20739;SDS011;10530;49.968;19.844;2023-04-06T02:43:53;10.95;;;3.80;;
20739;SDS011;10530;49.968;19.844;2023-04-06T02:49:28;18.77;;;4.75;;
20739;SDS011;10530;49.968;19.844;2023-04-06T02:54:33;11.95;;;4.53;;
20739;SDS011;10530;49.968;19.844;2023-04-06T02:59:55;7.67;;;3.33;;
20739;SDS011;10530;49.968;19.844;2023-04-06T03:05:06;7.00;;;2.55;;
20739;SDS011;10530;49.968;19.844;2023-04-06T03:10:14;11.75;;;4.25;;
20739;SDS011;10530;49.968;19.844;2023-04-06T03:15:39;10.63;;;4.20;;
20739;SDS011;10530;49.968;19.844;2023-04-06T03:20:48;8.55;;;4.07;;
20739;SDS011;10530;49.968;19.844;2023-04-06T03:25:53;10.70;;;4.67;;
20739;SDS011;10530;49.968;19.844;2023-04-06T03:31:15;9.13;;;4.13;;
20739;SDS011;10530;49.968;19.844;2023-04-06T03:36:42;8.77;;;4.13;;
20739;SDS011;10530;49.968;19.844;2023-04-06T03:41:44;11.10;;;3.47;;
20739;SDS011;10530;49.968;19.844;2023-04-06T03:47:06;8.77;;;3.53;;
20739;SDS011;10530;49.968;19.844;2023-04-06T03:52:27;7.13;;;3.90;;
20739;SDS011;10530;49.968;19.844;2023-04-06T03:57:30;8.30;;;4.78;;
20739;SDS011;10530;49.968;19.844;2023-04-06T04:02:51;9.98;;;3.83;;
20739;SDS011;10530;49.968;19.844;2023-04-06T04:08:13;9.65;;;4.03;;
20739;SDS011;10530;49.968;19.844;2023-04-06T04:13:35;14.88;;;3.90;;
20739;SDS011;10530;49.968;19.844;2023-04-06T04:18:40;8.70;;;4.27;;
20739;SDS011;10530;49.968;19.844;2023-04-06T04:24:04;11.20;;;4.60;;
20739;SDS011;10530;49.968;19.844;2023-04-06T04:29:09;14.60;;;4.47;;
20739;SDS011;10530;49.968;19.844;2023-04-06T04:34:31;11.23;;;4.68;;
20739;SDS011;10530;49.968;19.844;2023-04-06T04:39:36;10.80;;;4.60;;
20739;SDS011;10530;49.968;19.844;2023-04-06T04:44:41;12.53;;;4.90;;
20739;SDS011;10530;49.968;19.844;2023-04-06T04:49:44;10.38;;;4.38;;
20739;SDS011;10530;49.968;19.844;2023-04-06T04:55:10;9.10;;;3.60;;
20739;SDS011;10530;49.968;19.844;2023-04-06T05:00:33;10.55;;;4.78;;
20739;SDS011;10530;49.968;19.844;2023-04-06T05:05:36;12.88;;;4.60;;
20739;SDS011;10530;49.968;19.844;2023-04-06T05:10:41;12.50;;;5.27;;
20739;SDS011;10530;49.968;19.844;2023-04-06T05:16:02;15.43;;;5.93;;
20739;SDS011;10530;49.968;19.844;2023-04-06T05:21:26;14.13;;;5.30;;
20739;SDS011;10530;49.968;19.844;2023-04-06T05:26:34;20.33;;;6.72;;
20739;SDS011;10530;49.968;19.844;2023-04-06T05:32:02;18.60;;;7.80;;
20739;SDS011;10530;49.968;19.844;2023-04-06T05:37:06;12.27;;;6.77;;
20739;SDS011;10530;49.968;19.844;2023-04-06T05:42:35;14.75;;;5.93;;
20739;SDS011;10530;49.968;19.844;2023-04-06T05:47:40;22.17;;;7.90;;
20739;SDS011;10530;49.968;19.844;2023-04-06T05:52:53;23.95;;;8.95;;
20739;SDS011;10530;49.968;19.844;2023-04-06T05:58:18;18.50;;;8.65;;
20739;SDS011;10530;49.968;19.844;2023-04-06T06:03:24;19.00;;;8.00;;
20739;SDS011;10530;49.968;19.844;2023-04-06T06:08:30;21.55;;;9.27;;
20739;SDS011;10530;49.968;19.844;2023-04-06T06:13:54;15.48;;;7.32;;
20739;SDS011;10530;49.968;19.844;2023-04-06T06:18:59;28.23;;;8.55;;
20739;SDS011;10530;49.968;19.844;2023-04-06T06:24:20;24.48;;;7.68;;
20739;SDS011;10530;49.968;19.844;2023-04-06T06:29:23;17.97;;;8.40;;
20739;SDS011;10530;49.968;19.844;2023-04-06T06:34:44;17.67;;;6.95;;
20739;SDS011;10530;49.968;19.844;2023-04-06T06:39:47;12.95;;;6.07;;
20739;SDS011;10530;49.968;19.844;2023-04-06T06:45:11;12.20;;;4.55;;
20739;SDS011;10530;49.968;19.844;2023-04-06T06:50:33;11.15;;;5.45;;
20739;SDS011;10530;49.968;19.844;2023-04-06T06:55:54;10.60;;;4.03;;
20739;SDS011;10530;49.968;19.844;2023-04-06T07:01:17;15.23;;;6.68;;
20739;SDS011;10530;49.968;19.844;2023-04-06T07:06:38;12.57;;;5.25;;
20739;SDS011;10530;49.968;19.844;2023-04-06T07:11:59;10.07;;;3.63;;
20739;SDS011;10530;49.968;19.844;2023-04-06T07:17:22;9.98;;;4.22;;
20739;SDS011;10530;49.968;19.844;2023-04-06T07:22:44;13.10;;;3.80;;
20739;SDS011;10530;49.968;19.844;2023-04-06T07:28:05;9.65;;;3.80;;
20739;SDS011;10530;49.968;19.844;2023-04-06T07:33:27;3.90;;;1.70;;
20739;SDS011;10530;49.968;19.844;2023-04-06T07:38:51;8.60;;;4.03;;
20739;SDS011;10530;49.968;19.844;2023-04-06T07:44:12;5.45;;;2.28;;
20739;SDS011;10530;49.968;19.844;2023-04-06T07:49:34;9.87;;;3.13;;
20739;SDS011;10530;49.968;19.844;2023-04-06T07:54:56;8.40;;;3.30;;
20739;SDS011;10530;49.968;19.844;2023-04-06T08:00:17;7.72;;;2.83;;
20739;SDS011;10530;49.968;19.844;2023-04-06T08:05:39;7.30;;;3.25;;
20739;SDS011;10530;49.968;19.844;2023-04-06T08:11:01;9.25;;;3.38;;
20739;SDS011;10530;49.968;19.844;2023-04-06T08:16:04;7.87;;;2.57;;
20739;SDS011;10530;49.968;19.844;2023-04-06T08:21:07;8.82;;;3.58;;
20739;SDS011;10530;49.968;19.844;2023-04-06T08:26:10;6.68;;;2.92;;
20739;SDS011;10530;49.968;19.844;2023-04-06T08:31:13;9.63;;;4.00;;
20739;SDS011;10530;49.968;19.844;2023-04-06T08:36:16;8.82;;;3.63;;
20739;SDS011;10530;49.968;19.844;2023-04-06T08:41:22;8.87;;;4.00;;
20739;SDS011;10530;49.968;19.844;2023-04-06T08:46:25;8.30;;;3.15;;
20739;SDS011;10530;49.968;19.844;2023-04-06T08:51:31;6.22;;;3.03;;
20739;SDS011;10530;49.968;19.844;2023-04-06T08:56:37;8.10;;;3.35;;
20739;SDS011;10530;49.968;19.844;2023-04-06T09:01:40;10.65;;;3.25;;
20739;SDS011;10530;49.968;19.844;2023-04-06T09:06:47;9.10;;;3.47;;
20739;SDS011;10530;49.968;19.844;2023-04-06T09:11:52;7.30;;;3.40;;
20739;SDS011;10530;49.968;19.844;2023-04-06T09:16:55;10.63;;;4.47;;
20739;SDS011;10530;49.968;19.844;2023-04-06T09:22:02;9.43;;;3.88;;
20739;SDS011;10530;49.968;19.844;2023-04-06T09:27:11;12.23;;;3.65;;
20739;SDS011;10530;49.968;19.844;2023-04-06T09:32:15;8.67;;;3.33;;
20739;SDS011;10530;49.968;19.844;2023-04-06T09:37:19;12.88;;;3.58;;
20739;SDS011;10530;49.968;19.844;2023-04-06T09:42:25;8.23;;;3.25;;
20739;SDS011;10530;49.968;19.844;2023-04-06T09:47:28;8.55;;;4.13;;
20739;SDS011;10530;49.968;19.844;2023-04-06T09:52:37;7.00;;;3.25;;
20739;SDS011;10530;49.968;19.844;2023-04-06T09:57:45;8.57;;;3.67;;
20739;SDS011;10530;49.968;19.844;2023-04-06T10:03:10;9.48;;;3.72;;
20739;SDS011;10530;49.968;19.844;2023-04-06T10:08:15;8.88;;;3.22;;
20739;SDS011;10530;49.968;19.844;2023-04-06T10:13:23;9.70;;;3.50;;
20739;SDS011;10530;49.968;19.844;2023-04-06T10:18:26;7.82;;;3.30;;
20739;SDS011;10530;49.968;19.844;2023-04-06T10:23:33;9.03;;;3.13;;
20739;SDS011;10530;49.968;19.844;2023-04-06T10:28:40;9.25;;;3.15;;
20739;SDS011;10530;49.968;19.844;2023-04-06T10:33:53;5.25;;;2.25;;
20739;SDS011;10530;49.968;19.844;2023-04-06T10:38:58;4.80;;;2.15;;
20739;SDS011;10530;49.968;19.844;2023-04-06T10:44:02;10.30;;;3.67;;
20739;SDS011;10530;49.968;19.844;2023-04-06T10:49:11;10.67;;;3.80;;
20739;SDS011;10530;49.968;19.844;2023-04-06T10:54:14;8.82;;;3.63;;
20739;SDS011;10530;49.968;19.844;2023-04-06T10:59:19;6.40;;;2.35;;
20739;SDS011;10530;49.968;19.844;2023-04-06T11:04:24;6.70;;;2.80;;
20739;SDS011;10530;49.968;19.844;2023-04-06T11:09:28;10.48;;;3.60;;
20739;SDS011;10530;49.968;19.844;2023-04-06T11:14:33;8.77;;;3.53;;
20739;SDS011;10530;49.968;19.844;2023-04-06T11:19:36;10.05;;;3.22;;
20739;SDS011;10530;49.968;19.844;2023-04-06T11:24:39;6.18;;;2.85;;
20739;SDS011;10530;49.968;19.844;2023-04-06T11:29:42;9.15;;;3.30;;
20739;SDS011;10530;49.968;19.844;2023-04-06T11:34:46;8.45;;;3.78;;
20739;SDS011;10530;49.968;19.844;2023-04-06T11:39:50;11.20;;;4.27;;
20739;SDS011;10530;49.968;19.844;2023-04-06T11:44:54;7.25;;;2.85;;
20739;SDS011;10530;49.968;19.844;2023-04-06T11:50:08;9.95;;;3.40;;
20739;SDS011;10530;49.968;19.844;2023-04-06T11:55:15;10.98;;;4.57;;
20739;SDS011;10530;49.968;19.844;2023-04-06T12:00:20;11.75;;;4.60;;
20739;SDS011;10530;49.968;19.844;2023-04-06T12:05:23;12.80;;;4.53;;
20739;SDS011;10530;49.968;19.844;2023-04-06T12:10:26;14.32;;;4.65;;
20739;SDS011;10530;49.968;19.844;2023-04-06T12:15:30;12.50;;;4.53;;
20739;SDS011;10530;49.968;19.844;2023-04-06T12:20:32;8.18;;;3.55;;
20739;SDS011;10530;49.968;19.844;2023-04-06T12:25:36;11.57;;;4.30;;
20739;SDS011;10530;49.968;19.844;2023-04-06T12:30:41;12.83;;;4.50;;
20739;SDS011;10530;49.968;19.844;2023-04-06T12:35:44;10.35;;;4.18;;
20739;SDS011;10530;49.968;19.844;2023-04-06T12:40:47;8.00;;;3.55;;
20739;SDS011;10530;49.968;19.844;2023-04-06T12:45:50;12.57;;;5.13;;
20739;SDS011;10530;49.968;19.844;2023-04-06T12:50:57;11.38;;;4.88;;
20739;SDS011;10530;49.968;19.844;2023-04-06T12:56:01;14.17;;;5.90;;
20739;SDS011;10530;49.968;19.844;2023-04-06T13:01:13;9.20;;;4.25;;
20739;SDS011;10530;49.968;19.844;2023-04-06T13:06:16;20.67;;;6.88;;
20739;SDS011;10530;49.968;19.844;2023-04-06T13:11:19;16.65;;;6.18;;
20739;SDS011;10530;49.968;19.844;2023-04-06T13:16:23;12.55;;;6.60;;
20739;SDS011;10530;49.968;19.844;2023-04-06T13:21:27;14.30;;;6.40;;
20739;SDS011;10530;49.968;19.844;2023-04-06T13:26:29;8.90;;;3.08;;
20739;SDS011;10530;49.968;19.844;2023-04-06T13:31:32;14.13;;;4.53;;
20739;SDS011;10530;49.968;19.844;2023-04-06T13:36:35;11.88;;;4.90;;
20739;SDS011;10530;49.968;19.844;2023-04-06T13:41:38;11.32;;;4.78;;
20739;SDS011;10530;49.968;19.844;2023-04-06T13:46:42;10.70;;;5.43;;
20739;SDS011;10530;49.968;19.844;2023-04-06T13:51:45;12.90;;;5.80;;
20739;SDS011;10530;49.968;19.844;2023-04-06T13:56:47;10.90;;;4.93;;
20739;SDS011;10530;49.968;19.844;2023-04-06T14:01:50;23.50;;;6.47;;
20739;SDS011;10530;49.968;19.844;2023-04-06T14:06:53;14.02;;;4.22;;
20739;SDS011;10530;49.968;19.844;2023-04-06T14:11:56;14.93;;;6.37;;
20739;SDS011;10530;49.968;19.844;2023-04-06T14:16:59;18.88;;;7.68;;
20739;SDS011;10530;49.968;19.844;2023-04-06T14:22:02;20.10;;;7.60;;
20739;SDS011;10530;49.968;19.844;2023-04-06T14:27:06;18.58;;;6.20;;
20739;SDS011;10530;49.968;19.844;2023-04-06T14:32:08;15.18;;;6.72;;
20739;SDS011;10530;49.968;19.844;2023-04-06T14:37:12;16.53;;;5.87;;
20739;SDS011;10530;49.968;19.844;2023-04-06T14:42:15;10.85;;;5.22;;
20739;SDS011;10530;49.968;19.844;2023-04-06T14:47:18;19.55;;;6.40;;
20739;SDS011;10530;49.968;19.844;2023-04-06T14:52:22;17.05;;;7.07;;
20739;SDS011;10530;49.968;19.844;2023-04-06T14:57:25;16.90;;;7.25;;
20739;SDS011;10530;49.968;19.844;2023-04-06T15:02:27;20.73;;;7.57;;
20739;SDS011;10530;49.968;19.844;2023-04-06T15:07:30;12.75;;;7.00;;
20739;SDS011;10530;49.968;19.844;2023-04-06T15:12:35;20.08;;;8.63;;
20739;SDS011;10530;49.968;19.844;2023-04-06T15:17:38;17.73;;;6.28;;
20739;SDS011;10530;49.968;19.844;2023-04-06T15:22:40;23.45;;;7.63;;
20739;SDS011;10530;49.968;19.844;2023-04-06T15:27:43;18.07;;;7.57;;
20739;SDS011;10530;49.968;19.844;2023-04-06T15:32:56;20.13;;;6.22;;
20739;SDS011;10530;49.968;19.844;2023-04-06T15:38:05;22.00;;;7.50;;
20739;SDS011;10530;49.968;19.844;2023-04-06T15:43:09;20.35;;;7.78;;
20739;SDS011;10530;49.968;19.844;2023-04-06T15:48:12;16.40;;;6.97;;
20739;SDS011;10530;49.968;19.844;2023-04-06T15:53:15;18.23;;;7.70;;
20739;SDS011;10530;49.968;19.844;2023-04-06T15:58:17;15.77;;;7.57;;
20739;SDS011;10530;49.968;19.844;2023-04-06T16:03:20;19.85;;;8.75;;
20739;SDS011;10530;49.968;19.844;2023-04-06T16:08:23;23.85;;;9.15;;
20739;SDS011;10530;49.968;19.844;2023-04-06T16:13:26;20.00;;;7.45;;
20739;SDS011;10530;49.968;19.844;2023-04-06T16:18:29;16.73;;;7.13;;
20739;SDS011;10530;49.968;19.844;2023-04-06T16:23:34;23.23;;;9.93;;
20739;SDS011;10530;49.968;19.844;2023-04-06T16:28:37;23.15;;;9.25;;
20739;SDS011;10530;49.968;19.844;2023-04-06T16:33:40;25.10;;;8.55;;
20739;SDS011;10530;49.968;19.844;2023-04-06T16:38:43;20.35;;;8.65;;
20739;SDS011;10530;49.968;19.844;2023-04-06T16:43:47;19.23;;;8.57;;
20739;SDS011;10530;49.968;19.844;2023-04-06T16:48:50;22.60;;;9.50;;
20739;SDS011;10530;49.968;19.844;2023-04-06T16:53:53;24.35;;;8.80;;
20739;SDS011;10530;49.968;19.844;2023-04-06T16:58:56;14.18;;;4.72;;
20739;SDS011;10530;49.968;19.844;2023-04-06T17:03:59;18.65;;;9.32;;
20739;SDS011;10530;49.968;19.844;2023-04-06T17:09:03;31.40;;;10.53;;
20739;SDS011;10530;49.968;19.844;2023-04-06T17:14:06;22.60;;;8.82;;
20739;SDS011;10530;49.968;19.844;2023-04-06T17:19:10;16.55;;;9.00;;
20739;SDS011;10530;49.968;19.844;2023-04-06T17:24:12;22.35;;;10.52;;
20739;SDS011;10530;49.968;19.844;2023-04-06T17:29:15;28.55;;;10.77;;
20739;SDS011;10530;49.968;19.844;2023-04-06T17:34:18;19.33;;;8.83;;
20739;SDS011;10530;49.968;19.844;2023-04-06T17:39:21;24.00;;;8.95;;
20739;SDS011;10530;49.968;19.844;2023-04-06T17:44:24;31.13;;;11.93;;
20739;SDS011;10530;49.968;19.844;2023-04-06T17:49:27;30.02;;;12.57;;
20739;SDS011;10530;49.968;19.844;2023-04-06T17:54:30;11.88;;;6.05;;
20739;SDS011;10530;49.968;19.844;2023-04-06T17:59:33;19.53;;;9.60;;
20739;SDS011;10530;49.968;19.844;2023-04-06T18:04:36;29.77;;;9.75;;
20739;SDS011;10530;49.968;19.844;2023-04-06T18:09:38;22.30;;;9.07;;
20739;SDS011;10530;49.968;19.844;2023-04-06T18:14:42;24.17;;;10.77;;
20739;SDS011;10530;49.968;19.844;2023-04-06T18:19:46;26.20;;;10.93;;
20739;SDS011;10530;49.968;19.844;2023-04-06T18:24:49;26.67;;;11.60;;
20739;SDS011;10530;49.968;19.844;2023-04-06T18:29:52;15.45;;;7.38;;
20739;SDS011;10530;49.968;19.844;2023-04-06T18:34:56;31.15;;;11.65;;
20739;SDS011;10530;49.968;19.844;2023-04-06T18:39:59;31.10;;;11.52;;
20739;SDS011;10530;49.968;19.844;2023-04-06T18:45:02;27.67;;;9.98;;
20739;SDS011;10530;49.968;19.844;2023-04-06T18:50:06;31.87;;;12.13;;
20739;SDS011;10530;49.968;19.844;2023-04-06T18:55:09;30.35;;;12.90;;
20739;SDS011;10530;49.968;19.844;2023-04-06T19:00:12;31.15;;;12.48;;
20739;SDS011;10530;49.968;19.844;2023-04-06T19:05:16;30.35;;;10.70;;
20739;SDS011;10530;49.968;19.844;2023-04-06T19:10:19;22.63;;;10.13;;
20739;SDS011;10530;49.968;19.844;2023-04-06T19:15:22;24.60;;;10.53;;
20739;SDS011;10530;49.968;19.844;2023-04-06T19:20:25;28.90;;;10.93;;
20739;SDS011;10530;49.968;19.844;2023-04-06T19:25:28;25.15;;;10.90;;
20739;SDS011;10530;49.968;19.844;2023-04-06T19:30:30;21.15;;;7.68;;
20739;SDS011;10530;49.968;19.844;2023-04-06T19:35:33;29.25;;;12.73;;
20739;SDS011;10530;49.968;19.844;2023-04-06T19:40:36;15.77;;;5.53;;
20739;SDS011;10530;49.968;19.844;2023-04-06T19:45:39;21.85;;;9.23;;
20739;SDS011;10530;49.968;19.844;2023-04-06T19:50:42;22.73;;;9.43;;
20739;SDS011;10530;49.968;19.844;2023-04-06T19:55:46;24.77;;;8.50;;
20739;SDS011;10530;49.968;19.844;2023-04-06T20:00:49;30.58;;;10.95;;
20739;SDS011;10530;49.968;19.844;2023-04-06T20:05:52;20.03;;;7.90;;
20739;SDS011;10530;49.968;19.844;2023-04-06T20:11:02;18.00;;;8.57;;
20739;SDS011;10530;49.968;19.844;2023-04-06T20:16:06;24.70;;;10.00;;
20739;SDS011;10530;49.968;19.844;2023-04-06T20:21:09;32.67;;;12.38;;
20739;SDS011;10530;49.968;19.844;2023-04-06T20:26:12;27.17;;;10.77;;
20739;SDS011;10530;49.968;19.844;2023-04-06T20:31:15;9.17;;;3.53;;
20739;SDS011;10530;49.968;19.844;2023-04-06T20:36:18;29.30;;;10.55;;
20739;SDS011;10530;49.968;19.844;2023-04-06T20:41:23;34.25;;;11.55;;
20739;SDS011;10530;49.968;19.844;2023-04-06T20:46:26;27.95;;;11.00;;
20739;SDS011;10530;49.968;19.844;2023-04-06T20:51:29;28.48;;;10.85;;
20739;SDS011;10530;49.968;19.844;2023-04-06T20:56:32;28.50;;;12.07;;
20739;SDS011;10530;49.968;19.844;2023-04-06T21:01:35;26.20;;;9.15;;
20739;SDS011;10530;49.968;19.844;2023-04-06T21:06:38;26.55;;;11.45;;
20739;SDS011;10530;49.968;19.844;2023-04-06T21:11:41;32.50;;;11.27;;
20739;SDS011;10530;49.968;19.844;2023-04-06T21:16:44;30.67;;;11.38;;
20739;SDS011;10530;49.968;19.844;2023-04-06T21:21:47;26.90;;;11.03;;
20739;SDS011;10530;49.968;19.844;2023-04-06T21:26:50;26.15;;;9.60;;
20739;SDS011;10530;49.968;19.844;2023-04-06T21:31:52;19.67;;;7.50;;
20739;SDS011;10530;49.968;19.844;2023-04-06T21:36:56;20.52;;;7.22;;
20739;SDS011;10530;49.968;19.844;2023-04-06T21:41:59;27.95;;;11.23;;
20739;SDS011;10530;49.968;19.844;2023-04-06T21:47:02;20.60;;;9.03;;
20739;SDS011;10530;49.968;19.844;2023-04-06T21:52:05;18.92;;;7.50;;
20739;SDS011;10530;49.968;19.844;2023-04-06T21:57:08;24.42;;;9.98;;
20739;SDS011;10530;49.968;19.844;2023-04-06T22:02:10;21.90;;;8.73;;
20739;SDS011;10530;49.968;19.844;2023-04-06T22:07:13;23.10;;;10.23;;
20739;SDS011;10530;49.968;19.844;2023-04-06T22:12:16;16.77;;;7.97;;
20739;SDS011;10530;49.968;19.844;2023-04-06T22:17:19;24.10;;;9.25;;
20739;SDS011;10530;49.968;19.844;2023-04-06T22:22:22;24.13;;;8.07;;
20739;SDS011;10530;49.968;19.844;2023-04-06T22:27:26;16.05;;;6.68;;
20739;SDS011;10530;49.968;19.844;2023-04-06T22:32:28;22.42;;;9.73;;
20739;SDS011;10530;49.968;19.844;2023-04-06T22:37:31;22.27;;;9.30;;
20739;SDS011;10530;49.968;19.844;2023-04-06T22:42:34;24.77;;;10.15;;
20739;SDS011;10530;49.968;19.844;2023-04-06T22:47:37;22.40;;;9.68;;
20739;SDS011;10530;49.968;19.844;2023-04-06T22:52:40;22.77;;;9.27;;
20739;SDS011;10530;49.968;19.844;2023-04-06T22:57:43;27.58;;;10.02;;
20739;SDS011;10530;49.968;19.844;2023-04-06T23:02:46;21.80;;;8.03;;
20739;SDS011;10530;49.968;19.844;2023-04-06T23:07:49;17.65;;;8.02;;
20739;SDS011;10530;49.968;19.844;2023-04-06T23:12:55;15.50;;;6.95;;
20739;SDS011;10530;49.968;19.844;2023-04-06T23:17:57;25.73;;;8.98;;
20739;SDS011;10530;49.968;19.844;2023-04-06T23:23:00;11.25;;;4.88;;
20739;SDS011;10530;49.968;19.844;2023-04-06T23:28:03;6.27;;;2.67;;
20739;SDS011;10530;49.968;19.844;2023-04-06T23:33:06;11.73;;;5.50;;
20739;SDS011;10530;49.968;19.844;2023-04-06T23:38:09;23.00;;;10.13;;
20739;SDS011;10530;49.968;19.844;2023-04-06T23:43:11;9.48;;;5.13;;
20739;SDS011;10530;49.968;19.844;2023-04-06T23:48:14;22.70;;;9.45;;
20739;SDS011;10530;49.968;19.844;2023-04-06T23:53:17;21.47;;;6.73;;
20739;SDS011;10530;49.968;19.844;2023-04-06T23:58:19;22.23;;;9.43;;
